Warren, AR (71671)

2:33 PM CDT on September 19, 2014 (GMT -0500)
Hwy 172 | Change Station
CLOSE
Current Station
Personal Weather Station
Location: Monticello, AR
Elevation: 246 ft
Nearby Weather Stations

Elev 246 ft 33.55 °N, 91.82 °W | Updated 3 minutes ago

Mostly Cloudy
Mostly Cloudy
86.2 °F
Feels Like 85 °F
N
0.0
Wind Variable Wind from South
Gusts 0.0 mph

Today
High -- | Low -- °F
--% Chance of Precip.
Yesterday
High -- | Low -- °F
Precip. -- in
6:54 AM 7:09 PM
Waning Crescent, 17% visible
Pressure 29.99 in
Visibility 10.0 miles
Clouds Scattered Clouds 3200 ft
Mostly Cloudy 4000 ft
Mostly Cloudy 4800 ft
Heat Index 85 °F
Dew Point 56 °F
Humidity 36%
Rainfall 0.00 in
Snow Depth Not available.
UV 5 out of 12
Pollen 10.10 out of 12
Air Quality Not available.
Flu Activity Not available.
METAR KLLQ 191853Z AUTO VRB06KT 10SM SCT032 BKN040 BKN048 29/20 A3000 RMK AO2 SLP155 T02890200

More Conditions Fewer Conditions

Pressure 29.99 in
Visibility 10.0 miles
Clouds Scattered Clouds 3200 ft
Mostly Cloudy 4000 ft
Mostly Cloudy 4800 ft
Heat Index 85 °F
Dew Point 56 °F
Humidity 36%
Rainfall 0.00 in
Snow Depth Not available.
UV 5 out of 12
Pollen 10.10 out of 12
Air Quality Not available.
Flu Activity Not available.
METAR KLLQ 191853Z AUTO VRB06KT 10SM SCT032 BKN040 BKN048 29/20 A3000 RMK AO2 SLP155 T02890200

More Conditions Fewer Conditions

10-Day Weather Forecast

Almanac

Astronomy

Sep. 19, 2014 Rise Set
Actual Time 6:54 AM CDT 7:09 PM CDT
Civil Twilight 6:29 AM CDT 7:33 PM CDT
Nautical Twilight 6:00 AM CDT 8:03 PM CDT
Astronomical Twilight 5:30 AM CDT 8:32 PM CDT
Moon 2:49 AM CDT 4:29 PM CDT
Length of Visible Light 13h 04m
Length of Day
12h 14m
Tomorrow will be 2m 3s shorter.
Waning Crescent, 17% of the Moon is Illuminated
Today
Waning Crescent
Sep 24
New
Oct 1
First Quarter
Oct 8
Full
Oct 15
Last Quarter

Today's Extremes

State Highs State Lows

Community

WunderPhotos

Upload Photos

1,754,687 photos uploaded!

WunderBlogs® & News

Nearby

Snow Depth

Station Depth Elevation
No new snow has been reported.

Earthquake Activity

City Distance Mag. Time & Date
No recent earthquake activity has been reported nearby.
Minimum magnitude displayed is 2.5.

Coastal Water Temperatures

Place Temperature
No Stations Reporting

Nearby Weather Stations